createdAt,value
2018-07-03T00:01:33.362Z,17.24
2018-07-03T00:04:01.826Z,17.27
2018-07-03T00:06:30.625Z,17.36
2018-07-03T00:08:58.974Z,17.38
2018-07-03T00:11:27.451Z,17.41
2018-07-03T00:13:55.830Z,17.36
2018-07-03T00:16:29.433Z,17.28
2018-07-03T00:18:57.927Z,17.19
2018-07-03T00:21:26.205Z,17.16
2018-07-03T00:23:54.789Z,17.16
2018-07-03T00:26:23.212Z,17.10
2018-07-03T00:28:51.507Z,17.02
2018-07-03T00:31:19.836Z,17.00
2018-07-03T00:33:48.243Z,16.96
2018-07-03T00:36:16.599Z,16.91
2018-07-03T00:38:44.897Z,16.84
2018-07-03T00:41:13.318Z,16.69
2018-07-03T00:43:42.242Z,16.55
2018-07-03T00:46:10.625Z,16.45
2018-07-03T00:48:39.067Z,16.34
2018-07-03T00:51:08.326Z,16.30
2018-07-03T00:53:36.674Z,16.23
2018-07-03T00:56:05.362Z,16.13
2018-07-03T00:58:33.654Z,16.12
2018-07-03T01:01:01.873Z,16.04
2018-07-03T01:03:30.418Z,15.97
2018-07-03T01:05:58.720Z,15.97
2018-07-03T01:08:26.965Z,15.90
2018-07-03T01:10:55.300Z,15.98
2018-07-03T01:13:23.637Z,16.16
2018-07-03T01:15:52.143Z,16.06
2018-07-03T01:18:20.504Z,15.97
2018-07-03T01:20:48.864Z,15.93
2018-07-03T01:23:17.137Z,15.90
2018-07-03T01:25:45.494Z,15.77
2018-07-03T01:28:13.809Z,15.83
2018-07-03T01:30:42.452Z,15.82
2018-07-03T01:33:11.036Z,15.77
2018-07-03T01:35:39.301Z,15.67
2018-07-03T01:38:07.601Z,15.64
2018-07-03T01:40:35.921Z,15.60
2018-07-03T01:43:04.266Z,15.55
2018-07-03T01:45:32.544Z,15.47
2018-07-03T01:48:01.057Z,15.54
2018-07-03T01:50:29.452Z,15.63
2018-07-03T01:52:57.778Z,15.59
2018-07-03T01:55:26.132Z,15.55
2018-07-03T01:57:54.432Z,15.56
2018-07-03T02:00:22.727Z,15.59
2018-07-03T02:02:50.954Z,15.53
2018-07-03T02:05:19.266Z,15.49
2018-07-03T02:07:47.639Z,15.49
2018-07-03T02:10:15.985Z,15.49
2018-07-03T02:12:45.432Z,15.41
2018-07-03T02:15:13.704Z,15.33
2018-07-03T02:17:42.040Z,15.25
2018-07-03T02:20:10.994Z,15.31
2018-07-03T02:22:39.303Z,15.20
2018-07-03T02:25:07.565Z,15.16
2018-07-03T02:27:35.870Z,15.16
2018-07-03T02:30:04.756Z,15.13
2018-07-03T02:32:33.125Z,15.12
2018-07-03T02:35:01.430Z,15.06
2018-07-03T02:37:29.910Z,15.02
2018-07-03T02:39:58.181Z,14.98
2018-07-03T02:42:26.532Z,14.98
2018-07-03T02:44:54.884Z,15.00
2018-07-03T02:47:23.207Z,14.95
2018-07-03T02:49:51.611Z,14.99
2018-07-03T02:52:19.921Z,14.98
2018-07-03T02:54:48.625Z,14.90
2018-07-03T02:57:16.941Z,14.93
2018-07-03T02:59:45.301Z,14.93
2018-07-03T03:02:13.582Z,15.29
2018-07-03T03:04:42.005Z,15.69
2018-07-03T03:07:10.304Z,16.05
2018-07-03T03:09:38.693Z,16.29
2018-07-03T03:12:07.121Z,16.57
2018-07-03T03:14:35.453Z,16.67
2018-07-03T03:17:03.763Z,16.80
2018-07-03T03:19:32.249Z,17.02
2018-07-03T03:22:00.582Z,17.10
2018-07-03T03:24:29.001Z,17.09
2018-07-03T03:26:57.413Z,17.19
2018-07-03T03:29:25.729Z,17.24
2018-07-03T03:31:54.157Z,17.37
2018-07-03T03:34:22.608Z,17.21
2018-07-03T03:36:50.957Z,17.43
2018-07-03T03:39:19.337Z,17.54
2018-07-03T03:41:47.678Z,17.63
2018-07-03T03:44:16.005Z,17.65
2018-07-03T03:46:44.374Z,17.75
2018-07-03T03:49:12.647Z,17.76
2018-07-03T03:51:40.961Z,17.54
2018-07-03T03:54:09.337Z,17.63
2018-07-03T03:56:37.725Z,17.64
2018-07-03T03:59:06.089Z,17.68
2018-07-03T04:01:34.433Z,17.78
2018-07-03T04:04:02.764Z,17.93
2018-07-03T04:06:31.075Z,17.90
2018-07-03T04:08:59.356Z,17.97
2018-07-03T04:11:27.829Z,17.97
2018-07-03T04:13:56.122Z,18.14
2018-07-03T04:16:24.614Z,18.10
2018-07-03T04:18:52.916Z,18.19
2018-07-03T04:21:21.377Z,18.12
2018-07-03T04:23:49.759Z,18.21
2018-07-03T04:26:18.195Z,18.04
2018-07-03T04:28:46.497Z,17.75
2018-07-03T04:31:14.926Z,18.21
2018-07-03T04:33:43.333Z,18.49
2018-07-03T04:36:11.784Z,18.66
2018-07-03T04:38:40.047Z,18.59
2018-07-03T04:41:08.263Z,18.65
2018-07-03T04:43:36.568Z,18.56
2018-07-03T04:46:05.041Z,18.57
2018-07-03T04:48:33.561Z,18.52
2018-07-03T04:51:01.935Z,18.58
2018-07-03T04:53:32.023Z,18.47
2018-07-03T04:56:00.978Z,18.48
2018-07-03T04:58:29.372Z,18.54
2018-07-03T05:00:57.697Z,18.56
2018-07-03T05:03:26.133Z,18.88
2018-07-03T05:05:54.514Z,18.65
2018-07-03T05:08:22.855Z,18.69
2018-07-03T05:10:51.212Z,18.53
2018-07-03T05:13:19.683Z,18.64
2018-07-03T05:21:44.850Z,19.10
2018-07-03T05:24:14.130Z,18.83
2018-07-03T05:26:44.044Z,19.22
2018-07-03T05:29:13.675Z,19.27
2018-07-03T05:31:42.886Z,19.55
2018-07-03T05:34:14.109Z,19.52
2018-07-03T05:36:43.240Z,19.90
2018-07-03T05:39:14.063Z,19.57
2018-07-03T05:41:43.908Z,19.94
2018-07-03T05:44:12.951Z,19.98
2018-07-03T05:46:42.428Z,19.63
2018-07-03T05:49:11.712Z,19.33
2018-07-03T05:51:41.027Z,19.24
2018-07-03T05:54:10.252Z,19.32
2018-07-03T05:56:39.360Z,19.77
2018-07-03T05:59:08.470Z,19.94
2018-07-03T06:01:37.796Z,19.77
2018-07-03T06:04:07.930Z,19.93
2018-07-03T06:06:37.135Z,19.78
2018-07-03T06:09:08.551Z,19.91
2018-07-03T06:11:37.209Z,20.12
2018-07-03T06:14:07.167Z,20.16
2018-07-03T06:16:36.348Z,20.08
2018-07-03T06:19:05.659Z,19.95
2018-07-03T06:21:34.668Z,20.13
2018-07-03T06:24:04.098Z,20.22
2018-07-03T06:26:33.181Z,20.49
2018-07-03T06:29:02.431Z,20.88
2018-07-03T06:31:31.973Z,20.95
2018-07-03T06:34:00.879Z,20.96
2018-07-03T06:36:29.659Z,20.94
2018-07-03T06:38:58.865Z,21.08
2018-07-03T06:41:29.372Z,21.27
2018-07-03T06:43:58.468Z,21.37
2018-07-03T06:46:27.389Z,21.63
2018-07-03T06:48:57.090Z,21.64
2018-07-03T06:51:25.976Z,21.72
2018-07-03T06:53:54.825Z,21.94
2018-07-03T06:56:24.832Z,22.10
2018-07-03T06:58:54.326Z,22.21
2018-07-03T07:01:23.494Z,22.37
2018-07-03T07:03:52.543Z,22.50
2018-07-03T07:06:23.742Z,22.64
2018-07-03T07:08:53.247Z,22.64
2018-07-03T07:11:22.181Z,22.68
2018-07-03T07:13:55.224Z,22.47
2018-07-03T07:16:29.829Z,22.72
2018-07-03T07:19:03.471Z,22.98
2018-07-03T07:21:33.055Z,23.15
2018-07-03T07:24:02.032Z,23.39
2018-07-03T07:26:30.921Z,23.54
2018-07-03T07:28:59.944Z,23.68
2018-07-03T07:31:28.667Z,23.91
2018-07-03T07:33:57.594Z,23.62
2018-07-03T07:36:26.587Z,23.60
2018-07-03T07:38:56.190Z,23.93
2018-07-03T07:41:25.522Z,23.99
2018-07-03T07:43:54.918Z,24.07
2018-07-03T07:46:23.860Z,24.05
2018-07-03T07:48:53.449Z,24.28
2018-07-03T07:51:22.463Z,24.58
2018-07-03T07:53:51.461Z,24.62
2018-07-03T07:56:20.599Z,24.53
2018-07-03T07:58:49.399Z,24.62
2018-07-03T08:01:18.752Z,24.67
2018-07-03T08:03:47.664Z,24.83
2018-07-03T08:06:17.096Z,25.20
2018-07-03T08:08:45.975Z,25.40
2018-07-03T08:11:15.555Z,25.41
2018-07-03T08:13:44.600Z,25.45
2018-07-03T08:16:13.603Z,25.59
2018-07-03T08:18:42.480Z,25.71
2018-07-03T08:21:11.437Z,25.91
2018-07-03T08:23:40.353Z,26.14
2018-07-03T08:26:09.215Z,26.29
2018-07-03T08:28:38.216Z,26.48
2018-07-03T08:31:07.053Z,26.61
2018-07-03T08:33:36.269Z,26.61
2018-07-03T08:36:05.863Z,26.79
2018-07-03T08:38:34.714Z,26.92
2018-07-03T08:41:03.804Z,27.04
2018-07-03T08:43:32.830Z,27.20
2018-07-03T08:46:01.590Z,27.07
2018-07-03T08:48:31.136Z,27.20
2018-07-03T08:50:59.921Z,27.15
2018-07-03T08:53:28.981Z,27.41
2018-07-03T08:55:57.749Z,27.60
2018-07-03T08:58:26.468Z,27.79
2018-07-03T09:00:55.641Z,27.70
2018-07-03T09:03:24.435Z,27.33
2018-07-03T09:05:53.552Z,27.61
2018-07-03T09:08:22.444Z,28.06
2018-07-03T09:10:51.186Z,28.09
2018-07-03T09:13:19.909Z,28.19
2018-07-03T09:15:48.994Z,28.12
2018-07-03T09:18:17.716Z,27.92
2018-07-03T09:20:46.548Z,28.20
2018-07-03T09:23:15.579Z,28.23
2018-07-03T09:25:45.195Z,28.26
2018-07-03T09:28:14.038Z,28.05
2018-07-03T09:30:42.852Z,28.20
2018-07-03T09:33:11.845Z,28.47
2018-07-03T09:35:40.719Z,28.14
2018-07-03T09:38:10.057Z,28.21
2018-07-03T09:40:39.338Z,28.21
2018-07-03T09:43:08.802Z,28.48
2018-07-03T09:45:37.573Z,28.79
2018-07-03T09:48:06.767Z,28.77
2018-07-03T09:50:35.792Z,29.00
2018-07-03T09:53:05.708Z,29.24
2018-07-03T09:55:34.562Z,29.48
2018-07-03T09:58:03.234Z,29.49
2018-07-03T10:00:38.022Z,29.80
2018-07-03T10:03:06.837Z,30.03
2018-07-03T10:05:36.228Z,30.29
2018-07-03T10:08:05.384Z,30.25
2018-07-03T10:10:34.320Z,30.11
2018-07-03T10:13:03.070Z,29.95
2018-07-03T10:15:31.756Z,29.84
2018-07-03T10:18:05.342Z,29.98
2018-07-03T10:20:34.232Z,30.09
2018-07-03T10:23:04.146Z,29.75
2018-07-03T10:25:33.013Z,29.52
2018-07-03T10:28:01.882Z,29.15
2018-07-03T10:30:30.923Z,29.03
2018-07-03T10:32:59.846Z,29.44
2018-07-03T10:35:29.366Z,29.48
2018-07-03T10:37:58.133Z,29.81
2018-07-03T10:40:27.090Z,30.10
2018-07-03T10:42:55.920Z,30.29
2018-07-03T10:45:24.757Z,30.53
2018-07-03T10:47:53.729Z,30.46
2018-07-03T10:50:22.982Z,30.65
2018-07-03T10:52:52.163Z,30.84
2018-07-03T10:55:22.159Z,31.00
2018-07-03T10:57:51.241Z,31.05
2018-07-03T11:00:20.106Z,31.15
2018-07-03T11:02:49.480Z,31.13
2018-07-03T11:05:19.701Z,31.02
2018-07-03T11:07:48.528Z,30.99
2018-07-03T11:10:17.233Z,31.02
2018-07-03T11:12:45.865Z,31.01
2018-07-03T11:15:14.964Z,31.33
2018-07-03T11:17:43.803Z,31.50
2018-07-03T11:20:13.222Z,31.51
2018-07-03T11:22:42.604Z,31.58
2018-07-03T11:25:11.630Z,31.81
2018-07-03T11:27:40.435Z,32.02
2018-07-03T11:30:09.873Z,31.95
2018-07-03T11:32:38.651Z,31.45
2018-07-03T11:35:07.439Z,31.60
2018-07-03T11:37:36.747Z,31.38
2018-07-03T11:40:05.938Z,31.30
2018-07-03T11:42:35.761Z,30.78
2018-07-03T11:45:05.094Z,31.17
2018-07-03T11:47:34.634Z,32.18
2018-07-03T11:50:04.061Z,31.94
2018-07-03T11:52:33.243Z,32.31
2018-07-03T11:55:01.833Z,32.85
2018-07-03T11:57:30.544Z,33.39
2018-07-03T11:59:59.721Z,33.90
2018-07-03T12:02:28.378Z,34.02
2018-07-03T12:04:57.840Z,34.43
2018-07-03T12:07:26.929Z,34.69
2018-07-03T12:09:56.527Z,34.97
2018-07-03T12:12:26.235Z,34.74
2018-07-03T12:14:55.704Z,33.06
2018-07-03T12:17:25.440Z,32.72
2018-07-03T12:19:54.580Z,32.99
2018-07-03T12:22:23.433Z,32.81
2018-07-03T12:24:54.353Z,32.85
2018-07-03T12:27:23.786Z,33.84
2018-07-03T12:29:52.682Z,33.54
2018-07-03T12:32:21.865Z,33.91
2018-07-03T12:34:50.786Z,34.36
2018-07-03T12:37:19.858Z,33.62
2018-07-03T12:39:48.966Z,34.46
2018-07-03T12:42:17.677Z,35.01
2018-07-03T12:44:46.440Z,36.08
2018-07-03T12:47:15.558Z,37.15
2018-07-03T12:49:44.452Z,38.33
2018-07-03T12:52:13.651Z,39.45
2018-07-03T12:54:42.557Z,40.16
2018-07-03T12:57:11.735Z,40.91
2018-07-03T12:59:40.731Z,40.11
2018-07-03T13:02:10.877Z,41.64
2018-07-03T13:04:40.114Z,42.16
2018-07-03T13:07:08.770Z,40.25
2018-07-03T13:09:37.680Z,41.48
2018-07-03T13:12:07.267Z,40.94
2018-07-03T13:14:36.632Z,42.60
2018-07-03T13:17:06.058Z,40.59
2018-07-03T13:19:34.860Z,39.55
2018-07-03T13:22:04.922Z,38.77
2018-07-03T13:24:34.018Z,40.81
2018-07-03T13:27:03.373Z,41.13
2018-07-03T13:29:32.353Z,39.84
2018-07-03T13:32:01.281Z,39.57
2018-07-03T13:34:30.061Z,40.14
2018-07-03T13:36:59.021Z,40.28
2018-07-03T13:39:28.045Z,40.15
2018-07-03T13:41:56.852Z,41.48
2018-07-03T13:44:25.987Z,43.27
2018-07-03T13:46:55.989Z,42.00
2018-07-03T13:49:24.929Z,42.75
2018-07-03T13:51:54.240Z,41.50
2018-07-03T13:54:23.219Z,38.81
2018-07-03T13:56:52.010Z,37.74
2018-07-03T13:59:21.323Z,37.25
2018-07-03T14:01:50.193Z,37.31
2018-07-03T14:04:20.305Z,37.74
2018-07-03T14:06:49.057Z,37.14
2018-07-03T14:09:18.688Z,36.80
2018-07-03T14:11:47.518Z,36.77
2018-07-03T14:14:16.463Z,36.45
2018-07-03T14:16:45.403Z,36.13
2018-07-03T14:19:15.040Z,35.53
2018-07-03T14:21:44.024Z,35.89
2018-07-03T14:24:13.267Z,35.79
2018-07-03T14:26:42.296Z,35.17
2018-07-03T14:29:11.193Z,35.49
2018-07-03T14:31:40.092Z,36.19
2018-07-03T14:34:08.962Z,35.32
2018-07-03T14:36:37.828Z,35.94
2018-07-03T14:39:10.202Z,35.95
2018-07-03T14:41:39.681Z,35.62
2018-07-03T14:44:08.585Z,35.31
2018-07-03T14:46:37.428Z,35.08
2018-07-03T14:49:06.531Z,35.03
2018-07-03T14:51:35.495Z,35.15
2018-07-03T14:54:04.254Z,37.04
2018-07-03T14:56:33.247Z,37.96
2018-07-03T14:59:02.795Z,38.30
2018-07-03T15:01:31.533Z,42.40
2018-07-03T15:04:00.571Z,47.80
2018-07-03T15:06:29.668Z,52.43
2018-07-03T15:08:58.853Z,54.08
2018-07-03T15:11:28.250Z,55.63
2018-07-03T15:13:57.456Z,55.18
2018-07-03T15:16:26.188Z,57.90
2018-07-03T15:19:02.052Z,57.43
2018-07-03T15:21:31.040Z,58.63
2018-07-03T15:24:00.307Z,53.17
2018-07-03T15:26:29.350Z,57.47
2018-07-03T15:28:58.213Z,58.32
2018-07-03T15:31:27.922Z,58.88
2018-07-03T15:33:56.959Z,53.48
2018-07-03T15:36:25.778Z,53.46
2018-07-03T15:38:54.930Z,53.52
2018-07-03T15:41:24.209Z,52.43
2018-07-03T15:44:03.900Z,53.75
2018-07-03T15:46:33.049Z,54.23
2018-07-03T15:49:01.899Z,55.24
2018-07-03T15:51:30.569Z,57.30
2018-07-03T15:53:59.822Z,58.35
2018-07-03T15:56:28.672Z,58.82
2018-07-03T15:58:57.693Z,55.02
2018-07-03T16:01:26.685Z,54.23
2018-07-03T16:04:10.601Z,54.29
2018-07-03T16:07:22.028Z,56.05
2018-07-03T16:09:51.015Z,56.74
2018-07-03T16:12:23.042Z,57.23
2018-07-03T16:14:54.090Z,51.04
2018-07-03T16:17:26.658Z,48.18
2018-07-03T16:20:04.740Z,52.41
2018-07-03T16:22:34.788Z,44.31
2018-07-03T16:25:11.022Z,41.65
2018-07-03T16:27:45.042Z,47.16
2018-07-03T16:30:16.780Z,51.63
2018-07-03T16:32:47.906Z,53.60
2018-07-03T16:35:21.055Z,54.17
2018-07-03T16:37:52.929Z,50.22
2018-07-03T16:40:24.940Z,50.26
2018-07-03T16:42:55.549Z,51.81
2018-07-03T16:45:33.345Z,53.11
2018-07-03T16:48:08.844Z,52.16
2018-07-03T16:50:40.590Z,53.36
2018-07-03T16:53:14.788Z,53.54
2018-07-03T16:55:47.127Z,52.93
2018-07-03T16:58:18.203Z,50.93
2018-07-03T17:00:47.540Z,48.43
2018-07-03T17:03:17.768Z,50.37
2018-07-03T17:05:46.688Z,50.38
2018-07-03T17:11:54.465Z,48.71
2018-07-03T17:14:25.033Z,48.21
2018-07-03T17:16:55.207Z,47.37
2018-07-03T17:19:31.687Z,48.33
2018-07-03T17:22:02.026Z,47.79
2018-07-03T17:24:33.510Z,48.14
2018-07-03T17:27:03.971Z,49.39
2018-07-03T17:29:33.517Z,48.95
2018-07-03T17:32:02.527Z,47.09
2018-07-03T17:34:31.396Z,45.67
2018-07-03T17:37:00.942Z,45.84
2018-07-03T17:39:40.807Z,46.09
2018-07-03T17:42:20.699Z,44.90
2018-07-03T17:46:01.561Z,44.24
2018-07-03T17:48:30.699Z,43.34
2018-07-03T17:50:59.708Z,44.17
2018-07-03T17:53:28.457Z,44.59
2018-07-03T17:55:58.145Z,43.95
2018-07-03T17:58:27.398Z,42.76
2018-07-03T18:00:57.153Z,39.19
2018-07-03T18:03:26.567Z,35.50
2018-07-03T18:05:55.796Z,34.30
2018-07-03T18:08:25.107Z,33.65
2018-07-03T18:10:58.056Z,32.55
2018-07-03T18:13:28.099Z,31.91
2018-07-03T18:15:58.767Z,31.45
2018-07-03T18:18:36.763Z,31.14
2018-07-03T18:21:05.963Z,30.73
2018-07-03T18:23:36.056Z,30.46
2018-07-03T18:26:09.127Z,30.30
2018-07-03T18:28:38.507Z,29.87
2018-07-03T18:31:07.560Z,29.82
2018-07-03T18:33:37.029Z,29.54
2018-07-03T18:36:08.500Z,29.15
2018-07-03T18:38:37.935Z,29.02
2018-07-03T18:41:06.979Z,28.80
2018-07-03T18:43:35.884Z,28.40
2018-07-03T18:46:05.238Z,28.19
2018-07-03T18:48:35.826Z,27.83
2018-07-03T18:51:06.967Z,27.45
2018-07-03T18:53:37.046Z,27.17
2018-07-03T18:56:06.888Z,27.00
2018-07-03T18:58:35.838Z,26.89
2018-07-03T19:01:06.041Z,26.74
2018-07-03T19:03:35.462Z,26.61
2018-07-03T19:06:07.304Z,26.45
2018-07-03T19:08:37.275Z,26.27
2018-07-03T19:11:06.378Z,26.06
2018-07-03T19:13:36.252Z,25.93
2018-07-03T19:16:05.447Z,25.79
2018-07-03T19:18:34.370Z,25.64
2018-07-03T19:21:03.365Z,25.53
2018-07-03T19:23:32.420Z,25.39
2018-07-03T19:26:01.589Z,25.30
2018-07-03T19:28:30.354Z,25.14
2018-07-03T19:30:59.304Z,25.07
2018-07-03T19:33:28.161Z,24.98
2018-07-03T19:35:58.031Z,24.97
2018-07-03T19:38:27.245Z,24.78
2018-07-03T19:40:57.183Z,24.63
2018-07-03T19:43:30.304Z,24.58
2018-07-03T19:45:59.882Z,24.43
2018-07-03T19:48:29.100Z,24.27
2018-07-03T19:50:58.160Z,24.17
2018-07-03T19:53:27.142Z,24.10
2018-07-03T19:55:57.665Z,24.00
2018-07-03T19:58:27.305Z,23.97
2018-07-03T20:00:57.108Z,23.86
2018-07-03T20:03:26.178Z,23.76
2018-07-03T20:05:55.287Z,23.73
2018-07-03T20:08:24.378Z,23.59
2018-07-03T20:10:53.581Z,23.58
2018-07-03T20:13:22.291Z,23.53
2018-07-03T20:15:50.940Z,23.40
2018-07-03T20:18:20.267Z,23.25
2018-07-03T20:20:49.472Z,23.11
2018-07-03T20:23:18.360Z,22.92
2018-07-03T20:25:47.630Z,22.76
2018-07-03T20:28:17.458Z,22.68
2018-07-03T20:30:46.542Z,22.57
2018-07-03T20:33:16.069Z,22.47
2018-07-03T20:35:48.763Z,22.33
2018-07-03T20:38:17.385Z,22.21
2018-07-03T20:41:09.232Z,22.19
2018-07-03T20:43:40.974Z,22.19
2018-07-03T20:46:13.387Z,22.14
2018-07-03T20:48:43.038Z,21.99
2018-07-03T20:51:11.887Z,21.89
2018-07-03T20:53:52.511Z,21.85
2018-07-03T20:56:23.045Z,21.75
2018-07-03T20:58:52.966Z,21.67
2018-07-03T21:01:22.440Z,21.56
2018-07-03T21:03:52.199Z,21.46
2018-07-03T21:06:21.614Z,21.34
2018-07-03T21:08:50.709Z,21.31
2018-07-03T21:11:20.037Z,21.24
2018-07-03T21:13:49.516Z,21.26
2018-07-03T21:16:18.315Z,21.33
2018-07-03T21:18:48.425Z,21.32
2018-07-03T21:21:18.559Z,21.36
2018-07-03T21:23:47.842Z,21.31
2018-07-03T21:26:17.099Z,21.40
2018-07-03T21:28:45.887Z,21.36
2018-07-03T21:31:14.968Z,21.33
2018-07-03T21:33:43.964Z,21.33
2018-07-03T21:36:13.284Z,21.25
2018-07-03T21:38:42.199Z,21.25
2018-07-03T21:41:13.645Z,21.30
2018-07-03T21:43:45.823Z,21.27
2018-07-03T21:46:14.951Z,21.17
2018-07-03T21:48:46.770Z,21.08
2018-07-03T21:51:17.665Z,20.95
2018-07-03T21:53:48.078Z,20.91
2018-07-03T21:56:18.291Z,20.80
2018-07-03T21:58:49.726Z,20.70
2018-07-03T22:01:19.054Z,20.63
2018-07-03T22:03:49.666Z,20.56
2018-07-03T22:06:20.160Z,20.53
2018-07-03T22:08:49.132Z,20.46
2018-07-03T22:11:18.740Z,20.50
2018-07-03T22:13:47.736Z,20.49
2018-07-03T22:16:16.739Z,20.48
2018-07-03T22:18:45.610Z,20.43
2018-07-03T22:21:17.030Z,20.42
2018-07-03T22:23:45.934Z,20.39
2018-07-03T22:26:15.842Z,20.37
2018-07-03T22:28:45.137Z,20.41
2018-07-03T22:31:13.988Z,20.36
2018-07-03T22:33:42.983Z,20.34
2018-07-03T22:36:11.907Z,20.24
2018-07-03T22:38:41.211Z,20.19
2018-07-03T22:41:15.671Z,20.11
2018-07-03T22:43:45.901Z,20.07
2018-07-03T22:49:25.037Z,19.98
2018-07-03T22:51:54.858Z,19.91
2018-07-03T22:54:23.757Z,19.86
2018-07-03T22:56:53.168Z,19.79
2018-07-03T22:59:22.063Z,19.82
2018-07-03T23:01:51.585Z,19.76
2018-07-03T23:04:20.204Z,19.76
2018-07-03T23:06:49.115Z,19.81
2018-07-03T23:09:18.031Z,20.04
2018-07-03T23:11:46.916Z,20.15
2018-07-03T23:14:16.338Z,20.22
2018-07-03T23:16:45.339Z,20.19
2018-07-03T23:19:14.401Z,20.12
2018-07-03T23:21:43.651Z,20.08
2018-07-03T23:24:12.529Z,20.14
2018-07-03T23:26:41.870Z,20.19
2018-07-03T23:29:10.812Z,20.18
2018-07-03T23:31:40.104Z,20.18
2018-07-03T23:34:10.191Z,20.13
2018-07-03T23:36:39.229Z,20.04
2018-07-03T23:39:09.322Z,20.05
2018-07-03T23:41:38.166Z,20.05
2018-07-03T23:44:07.052Z,20.06
2018-07-03T23:46:47.085Z,20.13
2018-07-03T23:49:27.280Z,20.21
2018-07-03T23:52:07.193Z,20.42
2018-07-03T23:54:47.326Z,20.55
2018-07-03T23:57:27.425Z,20.58
